sensor_id;sensor_type;location;lat;lon;timestamp;pressure;altitude;pressure_sealevel;temperature;humidity
26657;BME280;14279;50.010;8.260;2022-12-07T00:01:15;100631.56;;;4.53;79.43
26657;BME280;14279;50.010;8.260;2022-12-07T00:03:42;100629.72;;;4.59;79.21
26657;BME280;14279;50.010;8.260;2022-12-07T00:06:11;100630.66;;;4.57;78.95
26657;BME280;14279;50.010;8.260;2022-12-07T00:08:36;100626.28;;;4.62;79.46
26657;BME280;14279;50.010;8.260;2022-12-07T00:13:28;100630.00;;;4.45;78.92
26657;BME280;14279;50.010;8.260;2022-12-07T00:15:53;100630.69;;;4.55;78.99
26657;BME280;14279;50.010;8.260;2022-12-07T00:18:18;100628.06;;;4.57;78.71
26657;BME280;14279;50.010;8.260;2022-12-07T00:20:44;100631.38;;;4.63;78.65
26657;BME280;14279;50.010;8.260;2022-12-07T00:23:09;100625.44;;;4.60;78.13
26657;BME280;14279;50.010;8.260;2022-12-07T00:25:34;100622.09;;;4.55;78.67
26657;BME280;14279;50.010;8.260;2022-12-07T00:27:59;100607.44;;;4.57;78.80
26657;BME280;14279;50.010;8.260;2022-12-07T00:30:24;100600.44;;;4.63;78.34
26657;BME280;14279;50.010;8.260;2022-12-07T00:32:50;100593.72;;;4.55;78.66
26657;BME280;14279;50.010;8.260;2022-12-07T00:35:15;100594.44;;;4.63;79.20
26657;BME280;14279;50.010;8.260;2022-12-07T00:37:40;100587.78;;;4.49;79.42
26657;BME280;14279;50.010;8.260;2022-12-07T00:40:06;100588.38;;;4.67;79.07
26657;BME280;14279;50.010;8.260;2022-12-07T00:42:32;100582.16;;;4.77;78.89
26657;BME280;14279;50.010;8.260;2022-12-07T00:44:57;100587.19;;;4.84;78.33
26657;BME280;14279;50.010;8.260;2022-12-07T00:47:22;100571.25;;;4.63;78.96
26657;BME280;14279;50.010;8.260;2022-12-07T00:49:47;100568.97;;;4.46;79.15
26657;BME280;14279;50.010;8.260;2022-12-07T00:52:12;100580.09;;;4.46;79.04
26657;BME280;14279;50.010;8.260;2022-12-07T00:54:38;100585.25;;;4.46;78.90
26657;BME280;14279;50.010;8.260;2022-12-07T00:57:04;100586.03;;;4.53;78.99
26657;BME280;14279;50.010;8.260;2022-12-07T00:59:29;100580.22;;;4.40;78.80
26657;BME280;14279;50.010;8.260;2022-12-07T01:01:54;100592.13;;;4.47;78.99
26657;BME280;14279;50.010;8.260;2022-12-07T01:04:20;100592.34;;;4.35;79.02
26657;BME280;14279;50.010;8.260;2022-12-07T01:06:45;100595.78;;;4.34;79.26
26657;BME280;14279;50.010;8.260;2022-12-07T01:09:10;100589.63;;;4.43;78.58
26657;BME280;14279;50.010;8.260;2022-12-07T01:11:36;100583.47;;;4.51;78.59
26657;BME280;14279;50.010;8.260;2022-12-07T01:14:01;100573.81;;;4.63;78.17
26657;BME280;14279;50.010;8.260;2022-12-07T01:16:28;100580.63;;;4.67;78.04
26657;BME280;14279;50.010;8.260;2022-12-07T01:18:55;100575.66;;;4.56;78.07
26657;BME280;14279;50.010;8.260;2022-12-07T01:21:25;100576.47;;;4.58;78.21
26657;BME280;14279;50.010;8.260;2022-12-07T01:23:51;100569.00;;;4.44;78.52
26657;BME280;14279;50.010;8.260;2022-12-07T01:26:22;100577.53;;;4.46;78.55
26657;BME280;14279;50.010;8.260;2022-12-07T01:28:47;100578.47;;;4.42;78.64
26657;BME280;14279;50.010;8.260;2022-12-07T01:31:15;100568.03;;;4.48;78.74
26657;BME280;14279;50.010;8.260;2022-12-07T01:33:43;100571.31;;;4.58;78.50
26657;BME280;14279;50.010;8.260;2022-12-07T01:36:20;100573.88;;;4.60;78.10
26657;BME280;14279;50.010;8.260;2022-12-07T01:38:47;100571.25;;;4.61;78.43
26657;BME280;14279;50.010;8.260;2022-12-07T01:41:13;100578.06;;;4.67;78.00
26657;BME280;14279;50.010;8.260;2022-12-07T01:44:08;100571.88;;;4.74;77.83
26657;BME280;14279;50.010;8.260;2022-12-07T01:46:34;100577.88;;;4.76;77.11
26657;BME280;14279;50.010;8.260;2022-12-07T01:49:00;100576.88;;;4.82;77.30
26657;BME280;14279;50.010;8.260;2022-12-07T01:51:27;100578.59;;;4.85;77.13
26657;BME280;14279;50.010;8.260;2022-12-07T01:53:53;100571.00;;;4.77;77.47
26657;BME280;14279;50.010;8.260;2022-12-07T01:56:20;100570.03;;;4.82;77.16
26657;BME280;14279;50.010;8.260;2022-12-07T01:58:49;100571.88;;;4.76;77.67
26657;BME280;14279;50.010;8.260;2022-12-07T02:01:15;100566.41;;;4.93;76.90
26657;BME280;14279;50.010;8.260;2022-12-07T02:03:43;100564.19;;;4.71;77.67
26657;BME280;14279;50.010;8.260;2022-12-07T02:06:11;100565.22;;;4.62;78.30
26657;BME280;14279;50.010;8.260;2022-12-07T02:08:37;100563.25;;;4.77;78.54
26657;BME280;14279;50.010;8.260;2022-12-07T02:11:04;100560.00;;;4.67;79.26
26657;BME280;14279;50.010;8.260;2022-12-07T02:13:32;100553.09;;;4.69;79.29
26657;BME280;14279;50.010;8.260;2022-12-07T02:21:48;100541.69;;;4.79;79.62
26657;BME280;14279;50.010;8.260;2022-12-07T02:24:25;100544.38;;;4.73;79.85
26657;BME280;14279;50.010;8.260;2022-12-07T02:30:10;100535.78;;;4.74;79.24
26657;BME280;14279;50.010;8.260;2022-12-07T02:35:35;100537.47;;;4.75;80.02
26657;BME280;14279;50.010;8.260;2022-12-07T02:38:37;100547.41;;;4.95;79.91
26657;BME280;14279;50.010;8.260;2022-12-07T02:41:12;100545.75;;;4.93;79.64
26657;BME280;14279;50.010;8.260;2022-12-07T02:43:44;100544.28;;;4.81;79.84
26657;BME280;14279;50.010;8.260;2022-12-07T02:46:14;100536.81;;;4.65;80.45
26657;BME280;14279;50.010;8.260;2022-12-07T02:48:42;100533.44;;;4.62;80.83
26657;BME280;14279;50.010;8.260;2022-12-07T02:51:08;100532.09;;;4.86;80.07
26657;BME280;14279;50.010;8.260;2022-12-07T02:53:39;100528.03;;;4.74;80.30
26657;BME280;14279;50.010;8.260;2022-12-07T02:56:27;100528.56;;;4.92;80.17
26657;BME280;14279;50.010;8.260;2022-12-07T03:06:50;100530.72;;;5.14;78.84
26657;BME280;14279;50.010;8.260;2022-12-07T03:09:32;100522.94;;;5.15;78.80
26657;BME280;14279;50.010;8.260;2022-12-07T03:12:09;100514.13;;;5.25;78.16
26657;BME280;14279;50.010;8.260;2022-12-07T03:14:52;100515.78;;;5.28;77.86
26657;BME280;14279;50.010;8.260;2022-12-07T03:17:25;100513.47;;;5.14;77.95
26657;BME280;14279;50.010;8.260;2022-12-07T03:19:55;100515.06;;;5.20;78.47
26657;BME280;14279;50.010;8.260;2022-12-07T03:22:23;100513.25;;;5.25;78.39
26657;BME280;14279;50.010;8.260;2022-12-07T03:24:55;100516.28;;;5.03;78.61
26657;BME280;14279;50.010;8.260;2022-12-07T03:27:25;100514.06;;;5.29;77.99
26657;BME280;14279;50.010;8.260;2022-12-07T03:30:00;100507.09;;;5.32;77.62
26657;BME280;14279;50.010;8.260;2022-12-07T03:35:03;100519.88;;;5.37;76.80
26657;BME280;14279;50.010;8.260;2022-12-07T03:37:44;100516.66;;;5.27;77.24
26657;BME280;14279;50.010;8.260;2022-12-07T03:40:28;100511.38;;;5.33;76.95
26657;BME280;14279;50.010;8.260;2022-12-07T03:42:55;100504.41;;;5.37;76.95
26657;BME280;14279;50.010;8.260;2022-12-07T03:45:35;100508.31;;;5.14;77.73
26657;BME280;14279;50.010;8.260;2022-12-07T03:48:07;100508.97;;;5.25;77.76
26657;BME280;14279;50.010;8.260;2022-12-07T03:51:03;100510.66;;;5.26;78.09
26657;BME280;14279;50.010;8.260;2022-12-07T03:53:36;100512.13;;;5.38;77.53
26657;BME280;14279;50.010;8.260;2022-12-07T03:56:04;100510.19;;;5.47;77.22
26657;BME280;14279;50.010;8.260;2022-12-07T03:58:30;100501.50;;;5.51;76.84
26657;BME280;14279;50.010;8.260;2022-12-07T04:00:56;100506.56;;;5.55;76.96
26657;BME280;14279;50.010;8.260;2022-12-07T04:03:22;100507.41;;;5.56;76.84
26657;BME280;14279;50.010;8.260;2022-12-07T04:05:47;100501.38;;;5.57;76.66
26657;BME280;14279;50.010;8.260;2022-12-07T04:08:13;100502.13;;;5.62;76.70
26657;BME280;14279;50.010;8.260;2022-12-07T04:10:38;100502.94;;;5.63;76.58
26657;BME280;14279;50.010;8.260;2022-12-07T04:13:03;100503.19;;;5.53;77.68
26657;BME280;14279;50.010;8.260;2022-12-07T04:15:29;100503.72;;;5.66;76.56
26657;BME280;14279;50.010;8.260;2022-12-07T04:17:54;100500.25;;;5.67;76.80
26657;BME280;14279;50.010;8.260;2022-12-07T04:20:20;100499.69;;;5.54;77.39
26657;BME280;14279;50.010;8.260;2022-12-07T04:22:46;100508.97;;;5.63;77.30
26657;BME280;14279;50.010;8.260;2022-12-07T04:25:11;100508.00;;;5.67;76.83
26657;BME280;14279;50.010;8.260;2022-12-07T04:27:37;100504.16;;;5.48;76.65
26657;BME280;14279;50.010;8.260;2022-12-07T04:30:02;100502.28;;;5.54;76.41
26657;BME280;14279;50.010;8.260;2022-12-07T04:32:28;100507.34;;;5.59;76.21
26657;BME280;14279;50.010;8.260;2022-12-07T04:34:53;100507.03;;;5.73;76.04
26657;BME280;14279;50.010;8.260;2022-12-07T04:37:18;100508.38;;;5.52;76.43
26657;BME280;14279;50.010;8.260;2022-12-07T04:39:43;100499.59;;;5.59;76.85
26657;BME280;14279;50.010;8.260;2022-12-07T04:42:09;100496.09;;;5.62;76.51
26657;BME280;14279;50.010;8.260;2022-12-07T04:44:35;100500.91;;;5.39;77.44
26657;BME280;14279;50.010;8.260;2022-12-07T04:47:00;100499.28;;;5.35;78.49
26657;BME280;14279;50.010;8.260;2022-12-07T04:49:26;100502.56;;;5.42;78.09
26657;BME280;14279;50.010;8.260;2022-12-07T04:51:51;100501.22;;;5.24;78.29
26657;BME280;14279;50.010;8.260;2022-12-07T04:54:17;100500.13;;;5.36;78.18
26657;BME280;14279;50.010;8.260;2022-12-07T04:56:43;100508.53;;;5.44;78.49
26657;BME280;14279;50.010;8.260;2022-12-07T04:59:10;100500.28;;;5.28;78.78
26657;BME280;14279;50.010;8.260;2022-12-07T05:01:36;100498.69;;;5.22;78.68
26657;BME280;14279;50.010;8.260;2022-12-07T05:04:01;100512.59;;;5.17;79.21
26657;BME280;14279;50.010;8.260;2022-12-07T05:06:27;100501.22;;;5.25;79.00
26657;BME280;14279;50.010;8.260;2022-12-07T05:08:52;100502.81;;;5.31;78.98
26657;BME280;14279;50.010;8.260;2022-12-07T05:11:17;100498.78;;;5.18;79.14
26657;BME280;14279;50.010;8.260;2022-12-07T05:14:02;100500.47;;;5.19;79.49
26657;BME280;14279;50.010;8.260;2022-12-07T05:16:28;100502.38;;;5.10;79.81
26657;BME280;14279;50.010;8.260;2022-12-07T05:18:54;100496.69;;;5.35;78.88
26657;BME280;14279;50.010;8.260;2022-12-07T05:21:19;100499.94;;;5.44;78.30
26657;BME280;14279;50.010;8.260;2022-12-07T05:23:45;100501.50;;;5.51;78.21
26657;BME280;14279;50.010;8.260;2022-12-07T05:26:10;100497.16;;;5.53;77.85
26657;BME280;14279;50.010;8.260;2022-12-07T05:28:35;100501.47;;;5.52;77.46
26657;BME280;14279;50.010;8.260;2022-12-07T05:31:01;100505.66;;;5.56;77.07
26657;BME280;14279;50.010;8.260;2022-12-07T05:33:26;100496.22;;;5.57;77.06
26657;BME280;14279;50.010;8.260;2022-12-07T05:35:51;100500.75;;;5.46;76.84
26657;BME280;14279;50.010;8.260;2022-12-07T05:38:17;100499.63;;;5.57;77.02
26657;BME280;14279;50.010;8.260;2022-12-07T05:40:42;100492.25;;;5.42;76.93
26657;BME280;14279;50.010;8.260;2022-12-07T05:43:07;100497.09;;;5.56;76.81
26657;BME280;14279;50.010;8.260;2022-12-07T05:45:33;100498.16;;;5.47;76.29
26657;BME280;14279;50.010;8.260;2022-12-07T05:47:58;100492.34;;;5.37;77.12
26657;BME280;14279;50.010;8.260;2022-12-07T05:50:23;100494.81;;;5.42;76.65
26657;BME280;14279;50.010;8.260;2022-12-07T05:52:49;100497.50;;;5.37;77.13
26657;BME280;14279;50.010;8.260;2022-12-07T05:55:14;100499.91;;;5.45;76.95
26657;BME280;14279;50.010;8.260;2022-12-07T05:57:39;100500.63;;;5.52;76.73
26657;BME280;14279;50.010;8.260;2022-12-07T06:00:25;100505.03;;;5.47;76.39
26657;BME280;14279;50.010;8.260;2022-12-07T06:02:50;100503.56;;;5.36;77.05
26657;BME280;14279;50.010;8.260;2022-12-07T06:05:15;100497.28;;;5.48;76.87
26657;BME280;14279;50.010;8.260;2022-12-07T06:07:40;100495.53;;;5.49;76.88
26657;BME280;14279;50.010;8.260;2022-12-07T06:10:06;100496.44;;;5.46;77.03
26657;BME280;14279;50.010;8.260;2022-12-07T06:12:31;100492.28;;;5.40;77.27
26657;BME280;14279;50.010;8.260;2022-12-07T06:14:59;100493.06;;;5.44;77.23
26657;BME280;14279;50.010;8.260;2022-12-07T06:17:25;100493.81;;;5.48;76.56
26657;BME280;14279;50.010;8.260;2022-12-07T06:19:50;100491.28;;;5.46;76.73
26657;BME280;14279;50.010;8.260;2022-12-07T06:22:16;100492.19;;;5.44;77.19
26657;BME280;14279;50.010;8.260;2022-12-07T06:24:41;100496.41;;;5.48;77.12
26657;BME280;14279;50.010;8.260;2022-12-07T06:27:07;100496.63;;;5.38;77.03
26657;BME280;14279;50.010;8.260;2022-12-07T06:29:33;100501.56;;;5.49;77.02
26657;BME280;14279;50.010;8.260;2022-12-07T06:31:58;100497.91;;;5.58;76.65
26657;BME280;14279;50.010;8.260;2022-12-07T06:34:24;100492.34;;;5.37;77.40
26657;BME280;14279;50.010;8.260;2022-12-07T06:36:50;100499.94;;;5.44;77.59
26657;BME280;14279;50.010;8.260;2022-12-07T06:39:19;100502.50;;;5.45;77.21
26657;BME280;14279;50.010;8.260;2022-12-07T06:41:44;100504.69;;;5.23;78.19
26657;BME280;14279;50.010;8.260;2022-12-07T06:44:10;100496.00;;;5.27;78.47
26657;BME280;14279;50.010;8.260;2022-12-07T06:46:35;100497.91;;;5.19;78.93
26657;BME280;14279;50.010;8.260;2022-12-07T06:49:01;100502.31;;;5.14;79.37
26657;BME280;14279;50.010;8.260;2022-12-07T06:51:26;100509.09;;;5.18;79.08
26657;BME280;14279;50.010;8.260;2022-12-07T06:53:52;100506.31;;;5.27;78.94
26657;BME280;14279;50.010;8.260;2022-12-07T06:56:17;100505.34;;;5.33;78.82
26657;BME280;14279;50.010;8.260;2022-12-07T06:58:42;100498.41;;;5.36;78.64
26657;BME280;14279;50.010;8.260;2022-12-07T07:01:10;100499.28;;;5.35;78.66
26657;BME280;14279;50.010;8.260;2022-12-07T07:03:35;100505.50;;;5.26;78.95
26657;BME280;14279;50.010;8.260;2022-12-07T07:06:00;100513.47;;;5.16;79.44
26657;BME280;14279;50.010;8.260;2022-12-07T07:08:26;100505.84;;;5.09;79.31
26657;BME280;14279;50.010;8.260;2022-12-07T07:10:51;100509.78;;;5.26;79.50
26657;BME280;14279;50.010;8.260;2022-12-07T07:13:16;100514.19;;;5.22;79.24
26657;BME280;14279;50.010;8.260;2022-12-07T07:15:42;100514.13;;;5.25;79.04
26657;BME280;14279;50.010;8.260;2022-12-07T07:18:07;100510.78;;;5.20;79.56
26657;BME280;14279;50.010;8.260;2022-12-07T07:20:32;100513.00;;;5.37;78.73
26657;BME280;14279;50.010;8.260;2022-12-07T07:22:58;100512.94;;;5.40;78.76
26657;BME280;14279;50.010;8.260;2022-12-07T07:25:23;100518.97;;;5.39;78.77
26657;BME280;14279;50.010;8.260;2022-12-07T07:27:49;100521.47;;;5.42;79.01
26657;BME280;14279;50.010;8.260;2022-12-07T07:30:14;100529.31;;;5.38;78.97
26657;BME280;14279;50.010;8.260;2022-12-07T07:32:39;100529.31;;;5.39;79.05
26657;BME280;14279;50.010;8.260;2022-12-07T07:35:05;100517.47;;;5.29;79.14
26657;BME280;14279;50.010;8.260;2022-12-07T07:37:30;100525.16;;;5.32;79.34
26657;BME280;14279;50.010;8.260;2022-12-07T07:39:56;100526.88;;;5.32;79.20
26657;BME280;14279;50.010;8.260;2022-12-07T07:42:21;100533.03;;;5.26;79.55
26657;BME280;14279;50.010;8.260;2022-12-07T07:44:47;100527.88;;;5.26;79.42
26657;BME280;14279;50.010;8.260;2022-12-07T07:47:12;100539.19;;;5.19;79.76
26657;BME280;14279;50.010;8.260;2022-12-07T07:49:37;100543.47;;;5.20;79.56
26657;BME280;14279;50.010;8.260;2022-12-07T07:52:03;100539.28;;;5.16;80.23
26657;BME280;14279;50.010;8.260;2022-12-07T07:54:29;100535.72;;;5.20;79.82
26657;BME280;14279;50.010;8.260;2022-12-07T07:56:55;100531.97;;;5.36;79.58
26657;BME280;14279;50.010;8.260;2022-12-07T07:59:20;100533.25;;;5.17;79.75
26657;BME280;14279;50.010;8.260;2022-12-07T08:01:45;100533.97;;;5.22;79.99
26657;BME280;14279;50.010;8.260;2022-12-07T08:04:10;100540.00;;;5.21;80.04
26657;BME280;14279;50.010;8.260;2022-12-07T08:06:36;100541.72;;;5.22;79.43
26657;BME280;14279;50.010;8.260;2022-12-07T08:09:02;100532.19;;;5.24;79.44
26657;BME280;14279;50.010;8.260;2022-12-07T08:11:27;100537.44;;;5.21;79.81
26657;BME280;14279;50.010;8.260;2022-12-07T08:13:53;100538.06;;;5.31;79.61
26657;BME280;14279;50.010;8.260;2022-12-07T08:16:18;100539.47;;;5.47;78.96
26657;BME280;14279;50.010;8.260;2022-12-07T08:18:43;100539.94;;;5.25;79.39
26657;BME280;14279;50.010;8.260;2022-12-07T08:21:14;100540.75;;;5.28;79.78
26657;BME280;14279;50.010;8.260;2022-12-07T08:23:39;100542.41;;;5.30;79.61
26657;BME280;14279;50.010;8.260;2022-12-07T08:26:11;100546.47;;;5.42;78.64
26657;BME280;14279;50.010;8.260;2022-12-07T08:28:37;100543.00;;;5.43;78.85
26657;BME280;14279;50.010;8.260;2022-12-07T08:31:04;100546.34;;;5.47;78.26
26657;BME280;14279;50.010;8.260;2022-12-07T08:33:30;100545.44;;;5.49;78.21
26657;BME280;14279;50.010;8.260;2022-12-07T08:36:03;100541.91;;;5.53;77.41
26657;BME280;14279;50.010;8.260;2022-12-07T08:38:29;100542.88;;;5.49;77.61
26657;BME280;14279;50.010;8.260;2022-12-07T08:40:55;100544.25;;;5.64;77.13
26657;BME280;14279;50.010;8.260;2022-12-07T08:43:21;100539.28;;;5.55;77.36
26657;BME280;14279;50.010;8.260;2022-12-07T08:45:48;100549.72;;;5.50;77.41
26657;BME280;14279;50.010;8.260;2022-12-07T08:48:15;100545.84;;;5.70;77.43
26657;BME280;14279;50.010;8.260;2022-12-07T08:50:42;100554.72;;;5.58;76.89
26657;BME280;14279;50.010;8.260;2022-12-07T08:53:08;100550.44;;;5.57;77.83
26657;BME280;14279;50.010;8.260;2022-12-07T08:55:34;100554.66;;;5.61;77.30
26657;BME280;14279;50.010;8.260;2022-12-07T08:58:00;100549.06;;;5.78;76.33
26657;BME280;14279;50.010;8.260;2022-12-07T09:00:26;100550.81;;;5.78;75.43
26657;BME280;14279;50.010;8.260;2022-12-07T09:02:51;100549.75;;;5.86;75.43
26657;BME280;14279;50.010;8.260;2022-12-07T09:05:16;100549.75;;;5.86;75.42
26657;BME280;14279;50.010;8.260;2022-12-07T09:07:44;100553.03;;;5.93;75.27
26657;BME280;14279;50.010;8.260;2022-12-07T09:10:11;100546.91;;;5.99;75.51
26657;BME280;14279;50.010;8.260;2022-12-07T09:12:37;100553.78;;;6.00;75.17
26657;BME280;14279;50.010;8.260;2022-12-07T09:15:02;100545.28;;;5.93;75.67
26657;BME280;14279;50.010;8.260;2022-12-07T09:17:32;100545.06;;;6.04;75.48
26657;BME280;14279;50.010;8.260;2022-12-07T09:19:57;100544.72;;;6.18;74.70
26657;BME280;14279;50.010;8.260;2022-12-07T09:22:22;100546.16;;;5.92;75.35
26657;BME280;14279;50.010;8.260;2022-12-07T09:24:48;100554.75;;;5.94;75.64
26657;BME280;14279;50.010;8.260;2022-12-07T09:27:13;100554.03;;;5.87;75.71
26657;BME280;14279;50.010;8.260;2022-12-07T09:29:39;100557.25;;;5.97;75.07
26657;BME280;14279;50.010;8.260;2022-12-07T09:32:04;100560.09;;;6.24;74.22
26657;BME280;14279;50.010;8.260;2022-12-07T09:34:32;100558.72;;;6.09;74.60
26657;BME280;14279;50.010;8.260;2022-12-07T09:36:58;100551.69;;;6.49;72.69
26657;BME280;14279;50.010;8.260;2022-12-07T09:39:25;100556.13;;;6.45;72.66
26657;BME280;14279;50.010;8.260;2022-12-07T09:41:50;100545.91;;;6.05;73.26
26657;BME280;14279;50.010;8.260;2022-12-07T09:44:24;100545.00;;;6.07;73.76
26657;BME280;14279;50.010;8.260;2022-12-07T09:46:52;100554.78;;;6.29;73.40
26657;BME280;14279;50.010;8.260;2022-12-07T09:49:23;100556.81;;;6.18;73.08
26657;BME280;14279;50.010;8.260;2022-12-07T09:52:01;100552.91;;;6.69;72.40
26657;BME280;14279;50.010;8.260;2022-12-07T09:54:28;100559.84;;;6.68;71.50
26657;BME280;14279;50.010;8.260;2022-12-07T09:56:54;100547.69;;;6.37;72.09
26657;BME280;14279;50.010;8.260;2022-12-07T09:59:19;100554.38;;;6.11;72.71
26657;BME280;14279;50.010;8.260;2022-12-07T10:01:47;100542.03;;;6.23;73.19
26657;BME280;14279;50.010;8.260;2022-12-07T10:04:17;100534.38;;;6.18;73.32
26657;BME280;14279;50.010;8.260;2022-12-07T10:06:43;100533.88;;;6.04;73.92
26657;BME280;14279;50.010;8.260;2022-12-07T10:09:10;100527.13;;;5.96;73.73
26657;BME280;14279;50.010;8.260;2022-12-07T10:14:23;100517.88;;;5.87;73.83
26657;BME280;14279;50.010;8.260;2022-12-07T10:16:50;100521.19;;;5.93;73.76
26657;BME280;14279;50.010;8.260;2022-12-07T10:19:23;100511.47;;;6.04;73.55
26657;BME280;14279;50.010;8.260;2022-12-07T10:22:15;100513.22;;;6.04;72.01
26657;BME280;14279;50.010;8.260;2022-12-07T10:24:43;100508.03;;;6.04;72.75
26657;BME280;14279;50.010;8.260;2022-12-07T10:27:30;100505.03;;;6.21;73.10
26657;BME280;14279;50.010;8.260;2022-12-07T10:29:57;100503.09;;;6.29;72.14
26657;BME280;14279;50.010;8.260;2022-12-07T10:32:28;100498.50;;;6.40;71.25
26657;BME280;14279;50.010;8.260;2022-12-07T10:35:20;100496.44;;;6.52;70.94
26657;BME280;14279;50.010;8.260;2022-12-07T10:37:46;100496.44;;;6.53;70.64
26657;BME280;14279;50.010;8.260;2022-12-07T10:45:44;100490.16;;;6.62;69.24
26657;BME280;14279;50.010;8.260;2022-12-07T10:51:30;100492.22;;;6.49;70.04
26657;BME280;14279;50.010;8.260;2022-12-07T10:54:12;100498.75;;;6.62;68.98
26657;BME280;14279;50.010;8.260;2022-12-07T11:00:00;100501.53;;;6.55;68.69
26657;BME280;14279;50.010;8.260;2022-12-07T11:02:38;100504.25;;;6.50;69.29
26657;BME280;14279;50.010;8.260;2022-12-07T11:10:57;100480.75;;;6.89;68.10
26657;BME280;14279;50.010;8.260;2022-12-07T11:13:48;100476.75;;;7.09;67.10
26657;BME280;14279;50.010;8.260;2022-12-07T11:19:23;100466.69;;;6.98;67.49
26657;BME280;14279;50.010;8.260;2022-12-07T11:21:57;100495.53;;;6.86;66.12
26657;BME280;14279;50.010;8.260;2022-12-07T11:24:48;100472.47;;;6.76;65.85
26657;BME280;14279;50.010;8.260;2022-12-07T11:27:27;100460.28;;;6.82;64.58
26657;BME280;14279;50.010;8.260;2022-12-07T11:30:06;100477.09;;;6.97;64.90
26657;BME280;14279;50.010;8.260;2022-12-07T11:35:46;100465.03;;;7.26;65.04
26657;BME280;14279;50.010;8.260;2022-12-07T11:38:20;100453.00;;;6.95;64.93
26657;BME280;14279;50.010;8.260;2022-12-07T11:40:49;100459.53;;;6.78;65.50
26657;BME280;14279;50.010;8.260;2022-12-07T11:43:28;100457.28;;;6.96;65.59
26657;BME280;14279;50.010;8.260;2022-12-07T11:46:04;100453.09;;;6.91;65.55
26657;BME280;14279;50.010;8.260;2022-12-07T11:48:38;100449.50;;;6.97;65.96
26657;BME280;14279;50.010;8.260;2022-12-07T11:51:09;100446.50;;;6.81;65.89
26657;BME280;14279;50.010;8.260;2022-12-07T11:53:39;100448.69;;;6.95;64.57
26657;BME280;14279;50.010;8.260;2022-12-07T11:56:19;100452.00;;;6.69;67.01
26657;BME280;14279;50.010;8.260;2022-12-07T12:01:56;100432.69;;;6.81;67.18
26657;BME280;14279;50.010;8.260;2022-12-07T12:04:47;100427.91;;;6.97;67.02
26657;BME280;14279;50.010;8.260;2022-12-07T12:07:21;100427.19;;;6.91;67.63
26657;BME280;14279;50.010;8.260;2022-12-07T12:10:06;100439.69;;;6.47;68.72
26657;BME280;14279;50.010;8.260;2022-12-07T12:12:54;100423.94;;;6.56;69.14
26657;BME280;14279;50.010;8.260;2022-12-07T12:15:47;100429.13;;;6.55;69.58
26657;BME280;14279;50.010;8.260;2022-12-07T12:21:16;100425.22;;;6.71;69.00
26657;BME280;14279;50.010;8.260;2022-12-07T12:26:36;100426.09;;;6.40;69.88
26657;BME280;14279;50.010;8.260;2022-12-07T12:32:03;100408.91;;;6.68;67.65
26657;BME280;14279;50.010;8.260;2022-12-07T12:42:57;100402.38;;;6.56;67.36
26657;BME280;14279;50.010;8.260;2022-12-07T12:48:04;100400.59;;;6.88;66.89
26657;BME280;14279;50.010;8.260;2022-12-07T12:54:03;100396.16;;;6.91;64.80
26657;BME280;14279;50.010;8.260;2022-12-07T13:01:46;100392.50;;;6.99;64.79
26657;BME280;14279;50.010;8.260;2022-12-07T13:04:25;100381.72;;;7.13;64.51
26657;BME280;14279;50.010;8.260;2022-12-07T13:06:52;100376.38;;;7.44;63.31
26657;BME280;14279;50.010;8.260;2022-12-07T13:09:23;100370.66;;;7.34;63.55
26657;BME280;14279;50.010;8.260;2022-12-07T13:11:56;100371.84;;;6.97;64.55
26657;BME280;14279;50.010;8.260;2022-12-07T13:14:43;100376.09;;;7.27;64.42
26657;BME280;14279;50.010;8.260;2022-12-07T13:20:39;100374.03;;;7.89;62.39
26657;BME280;14279;50.010;8.260;2022-12-07T13:22:49;100372.91;;;7.71;61.77
26657;BME280;14279;50.010;8.260;2022-12-07T13:25:24;100362.06;;;7.34;63.60
26657;BME280;14279;50.010;8.260;2022-12-07T13:27:57;100361.72;;;7.16;64.81
26657;BME280;14279;50.010;8.260;2022-12-07T13:30:26;100364.41;;;7.67;63.83
26657;BME280;14279;50.010;8.260;2022-12-07T13:32:54;100371.75;;;7.54;62.72
26657;BME280;14279;50.010;8.260;2022-12-07T13:37:54;100365.66;;;7.28;63.67
26657;BME280;14279;50.010;8.260;2022-12-07T13:40:21;100367.44;;;7.28;63.52
26657;BME280;14279;50.010;8.260;2022-12-07T13:42:47;100367.63;;;7.21;63.64
26657;BME280;14279;50.010;8.260;2022-12-07T13:45:31;100365.41;;;7.36;63.70
26657;BME280;14279;50.010;8.260;2022-12-07T13:51:01;100356.44;;;7.21;63.82
26657;BME280;14279;50.010;8.260;2022-12-07T13:53:27;100363.75;;;7.08;63.71
26657;BME280;14279;50.010;8.260;2022-12-07T13:55:58;100366.44;;;7.03;63.73
26657;BME280;14279;50.010;8.260;2022-12-07T13:58:30;100355.84;;;7.11;64.08
26657;BME280;14279;50.010;8.260;2022-12-07T14:00:56;100345.00;;;7.00;63.99
26657;BME280;14279;50.010;8.260;2022-12-07T14:03:27;100358.03;;;6.97;64.67
26657;BME280;14279;50.010;8.260;2022-12-07T14:06:23;100360.13;;;7.12;64.09
26657;BME280;14279;50.010;8.260;2022-12-07T14:08:50;100363.84;;;7.32;63.74
26657;BME280;14279;50.010;8.260;2022-12-07T14:11:30;100357.91;;;7.28;64.01
26657;BME280;14279;50.010;8.260;2022-12-07T14:14:00;100355.94;;;7.35;64.22
26657;BME280;14279;50.010;8.260;2022-12-07T14:16:30;100361.97;;;7.62;63.50
26657;BME280;14279;50.010;8.260;2022-12-07T14:18:58;100366.41;;;7.59;63.08
26657;BME280;14279;50.010;8.260;2022-12-07T14:21:26;100368.06;;;7.61;63.31
26657;BME280;14279;50.010;8.260;2022-12-07T14:26:43;100349.75;;;7.66;62.35
26657;BME280;14279;50.010;8.260;2022-12-07T14:29:38;100362.00;;;7.35;62.03
26657;BME280;14279;50.010;8.260;2022-12-07T14:32:26;100358.06;;;7.24;63.40
26657;BME280;14279;50.010;8.260;2022-12-07T14:35:11;100360.91;;;7.43;62.88
26657;BME280;14279;50.010;8.260;2022-12-07T14:37:39;100351.28;;;7.19;63.21
26657;BME280;14279;50.010;8.260;2022-12-07T14:40:05;100351.41;;;6.88;64.31
26657;BME280;14279;50.010;8.260;2022-12-07T14:42:31;100347.03;;;6.90;64.94
26657;BME280;14279;50.010;8.260;2022-12-07T14:44:58;100345.59;;;6.81;65.03